Ainsworth, Nebraska
Current Conditions -  °F | °C
As of 12:15 AM on Monday 24 Nov 2014 (Local Time) from KANW Reporting Station
Scattered Clouds Scattered Clouds  
Wind Chill: 17°   Ceiling: Unl
Heat Index: 30°   Visibility: 10mi
Dew Point: 20°   Wind: 21mph
Humidity: 67%   Direction: 320°NW
Pressure: 29.65"   Gusts: 32mph
Location:  42.55°N, 99.86°W
Report Text: KANW 240615Z AUTO 32018G28KT 10SM SCT030 SCT095 M01/M06 A2965 RMK AO2 T10101065
Loading
Personal Weather Stations






























Interactive Weather Map New forecast layout! Learn more

10-Day Weather Forecast

Advertisements
Track Severe Weather on mobile